Ware, Iowa
Current Conditions -  °F | °C
As of 12:35 PM on Thursday 27 Nov 2014 (Local Time) from KAXA Reporting Station
Clear Clear  
Wind Chill: -10°   Ceiling: Unl
Heat Index:   Visibility: 10mi
Dew Point: -8°   Wind: 5mph
Humidity: 72%   Direction: 320°NW
Pressure: 30.48"   Gusts: NA
Location:  42.8425°N, 94.7375°W
Report Text: KAXA 271835Z AUTO 32004KT 10SM CLR M18/M22 A3048 RMK AO2
Loading
Personal Weather Stations






























Interactive Weather Map New forecast layout! Learn more

10-Day Weather Forecast

Advertisements
Track Severe Weather on mobile